Time;durP1;ratioP1;P1;durP2;ratioP2;P2;SDS_P1;SDS_P2;PMS_P1;PMS_P2;Temp;Humidity;BMP_temperature;BMP_pressure;BME280_temperature;BME280_humidity;BME280_pressure;Samples;Min_cycle;Max_cycle;Signal;HPM_P1;HPM_P2
2021/12/30 00:00:27;;;;;;;107.85;67.05;;;;;;;4.55;100.00;100522.34;5017013;28;20022;-84
2021/12/30 00:02:52;;;;;;;103.73;63.23;;;;;;;4.46;100.00;100520.69;5018488;28;20034;-84
2021/12/30 00:05:17;;;;;;;95.90;64.30;;;;;;;4.52;100.00;100540.19;5016608;28;20491;-84
2021/12/30 00:07:43;;;;;;;97.67;63.60;;;;;;;4.58;100.00;100536.75;5014251;28;20455;-84
2021/12/30 00:10:09;;;;;;;92.78;62.50;;;;;;;4.76;100.00;100525.56;5012931;28;20080;-84
2021/12/30 00:12:34;;;;;;;94.47;61.27;;;;;;;4.72;100.00;100514.56;5010649;28;20030;-83
2021/12/30 00:15:00;;;;;;;92.57;60.07;;;;;;;4.83;100.00;100533.16;5008687;28;20025;-84
2021/12/30 00:17:25;;;;;;;86.20;60.70;;;;;;;4.76;100.00;100520.47;4999302;28;20036;-84
2021/12/30 00:19:51;;;;;;;94.33;63.00;;;;;;;4.82;100.00;100535.72;4989937;28;20283;-84
2021/12/30 00:22:17;;;;;;;84.18;59.10;;;;;;;4.87;100.00;100545.03;4990345;28;20028;-84
2021/12/30 00:24:42;;;;;;;88.17;60.20;;;;;;;4.80;100.00;100540.81;4988032;28;20050;-84
2021/12/30 00:27:08;;;;;;;81.07;60.47;;;;;;;4.88;100.00;100539.09;4988326;28;20030;-84
2021/12/30 00:29:33;;;;;;;88.83;60.80;;;;;;;5.03;100.00;100553.38;4988371;28;20080;-82
2021/12/30 00:31:59;;;;;;;87.32;61.03;;;;;;;5.14;100.00;100548.19;4988812;28;20030;-83
2021/12/30 00:34:24;;;;;;;92.30;62.30;;;;;;;5.30;100.00;100568.44;4988582;28;20022;-84
2021/12/30 00:36:50;;;;;;;96.07;63.70;;;;;;;5.41;100.00;100566.66;5004908;28;20714;-84
2021/12/30 00:39:15;;;;;;;108.30;65.57;;;;;;;5.45;100.00;100542.78;4987810;28;20121;-83
2021/12/30 00:41:41;;;;;;;102.70;64.47;;;;;;;5.51;100.00;100558.03;4990169;28;20210;-84
2021/12/30 00:44:06;;;;;;;94.93;63.63;;;;;;;5.49;100.00;100548.69;5007732;28;20022;-84
2021/12/30 00:46:31;;;;;;;106.10;66.97;;;;;;;5.67;100.00;100568.09;5007183;28;20501;-83
2021/12/30 00:48:57;;;;;;;115.27;66.67;;;;;;;5.43;100.00;100529.22;5006940;28;20026;-85
2021/12/30 00:51:22;;;;;;;107.67;66.03;;;;;;;5.67;100.00;100558.72;5007092;28;20345;-85
2021/12/30 00:53:47;;;;;;;116.97;69.10;;;;;;;5.66;100.00;100566.38;5006498;28;20040;-84
2021/12/30 00:56:13;;;;;;;116.23;66.07;;;;;;;5.62;100.00;100556.22;5004941;28;20030;-84
2021/12/30 00:58:38;;;;;;;116.80;66.60;;;;;;;5.71;100.00;100564.63;5011731;28;20044;-82
2021/12/30 01:01:05;;;;;;;122.23;68.80;;;;;;;5.75;100.00;100556.06;5020136;28;20085;-83
2021/12/30 01:03:31;;;;;;;142.25;70.85;;;;;;;5.79;100.00;100575.56;5017223;28;20022;-85
2021/12/30 01:05:57;;;;;;;;;;;;;;;5.77;100.00;100582.41;5015729;28;20029;-84
2021/12/30 01:08:22;;;;;;;130.32;70.80;;;;;;;5.80;100.00;100590.03;5013161;28;19953;-84
2021/12/30 01:10:47;;;;;;;142.17;69.30;;;;;;;5.71;100.00;100572.28;5010059;28;20022;-84
2021/12/30 01:13:26;;;;;;;138.50;71.40;;;;;;;5.84;100.00;100590.84;5013476;28;20017;-81
2021/12/30 01:16:01;;;;;;;130.65;70.95;;;;;;;5.85;100.00;100607.88;5022265;28;20045;-81
2021/12/30 01:20:59;;;;;;;143.38;72.60;;;;;;;5.76;100.00;100583.31;5027961;28;20030;-84
2021/12/30 01:23:25;;;;;;;139.67;72.33;;;;;;;5.88;100.00;100613.78;5005058;28;20022;-84
2021/12/30 01:25:51;;;;;;;139.70;71.95;;;;;;;5.89;100.00;100612.91;5005385;28;20475;-84
2021/12/30 01:28:17;;;;;;;139.57;71.43;;;;;;;5.95;100.00;100625.63;5002410;28;20022;-83
2021/12/30 01:30:42;;;;;;;143.67;74.00;;;;;;;5.79;100.00;100613.88;5010140;28;20497;-83
2021/12/30 01:33:08;;;;;;;146.35;72.28;;;;;;;5.88;100.00;100639.28;5012615;28;20037;-83
2021/12/30 01:35:33;;;;;;;147.20;74.07;;;;;;;5.91;100.00;100648.66;5019676;28;20042;-81
2021/12/30 01:38:01;;;;;;;131.87;71.23;;;;;;;5.88;100.00;100644.41;5019782;28;20053;-81
2021/12/30 01:40:28;;;;;;;137.90;70.20;;;;;;;5.90;100.00;100647.81;5020171;28;20472;-82
2021/12/30 01:42:53;;;;;;;149.68;73.78;;;;;;;6.06;100.00;100658.72;5035861;28;20014;-82
2021/12/30 01:45:18;;;;;;;137.53;72.20;;;;;;;5.97;100.00;100658.81;5018734;28;20097;-80
2021/12/30 01:47:51;;;;;;;124.43;69.43;;;;;;;5.93;100.00;100652.00;5008582;28;20032;-83
2021/12/30 01:50:21;;;;;;;137.32;69.82;;;;;;;6.03;100.00;100668.09;5008762;28;20087;-84
2021/12/30 01:52:46;;;;;;;132.77;72.18;;;;;;;6.12;100.00;100676.50;5004382;28;20060;-84
2021/12/30 01:55:13;;;;;;;128.52;69.80;;;;;;;6.05;100.00;100661.31;5005930;28;20025;-84
2021/12/30 01:57:39;;;;;;;123.25;70.93;;;;;;;6.01;100.00;100662.19;5006326;28;20033;-83
2021/12/30 02:00:11;;;;;;;121.95;67.88;;;;;;;6.08;100.00;100661.28;5005617;28;20023;-84
2021/12/30 02:02:37;;;;;;;121.18;70.10;;;;;;;6.13;100.00;100664.59;5006854;28;20057;-85
2021/12/30 02:05:03;;;;;;;153.27;70.05;;;;;;;6.07;100.00;100659.56;5005799;28;20022;-85
2021/12/30 02:07:28;;;;;;;112.88;67.93;;;;;;;6.23;100.00;100676.41;5007921;28;20022;-85
2021/12/30 02:10:00;;;;;;;117.80;66.20;;;;;;;6.13;100.00;100675.66;5014640;28;20025;-83
2021/12/30 02:12:25;;;;;;;126.18;66.70;;;;;;;6.13;100.00;100685.88;5018658;28;20097;-84
2021/12/30 02:14:51;;;;;;;116.07;67.70;;;;;;;6.10;100.00;100693.56;5015582;28;20026;-85
2021/12/30 02:17:16;;;;;;;116.67;67.83;;;;;;;6.15;100.00;100703.75;5010640;28;20279;-83
2021/12/30 02:19:41;;;;;;;117.50;67.90;;;;;;;5.97;100.00;100690.31;5014445;28;20034;-84
2021/12/30 02:22:07;;;;;;;117.83;67.93;;;;;;;6.13;100.00;100700.38;5012790;28;20037;-84
2021/12/30 02:24:32;;;;;;;111.47;68.90;;;;;;;6.28;100.00;100730.84;5012936;28;20022;-83
2021/12/30 02:26:59;;;;;;;115.85;70.93;;;;;;;6.28;100.00;100710.41;5013622;28;20080;-84
2021/12/30 02:29:25;;;;;;;109.57;67.32;;;;;;;6.21;100.00;100708.78;5016564;28;20034;-83
2021/12/30 02:31:50;;;;;;;107.27;66.33;;;;;;;6.37;100.00;100724.78;5009773;28;20049;-83
2021/12/30 02:34:16;;;;;;;113.13;67.23;;;;;;;6.28;100.00;100718.09;5011626;28;20025;-84
2021/12/30 02:36:41;;;;;;;107.32;65.30;;;;;;;6.36;100.00;100728.19;5011056;28;20030;-84
2021/12/30 02:39:09;;;;;;;108.07;65.77;;;;;;;6.40;100.00;100724.75;5007789;28;20052;-84
2021/12/30 02:41:36;;;;;;;102.22;64.22;;;;;;;6.33;100.00;100716.31;5000065;28;20094;-85
2021/12/30 02:44:03;;;;;;;99.97;63.05;;;;;;;6.45;100.00;100717.03;4989705;28;20023;-85
2021/12/30 02:46:29;;;;;;;103.47;62.08;;;;;;;6.35;100.00;100713.75;4990899;28;20026;-85
2021/12/30 02:48:55;;;;;;;103.33;63.00;;;;;;;6.31;100.00;100722.28;4989824;28;20029;-84
2021/12/30 02:51:21;;;;;;;94.50;61.80;;;;;;;6.33;100.00;100752.09;4989004;28;20121;-84
2021/12/30 02:53:47;;;;;;;93.78;65.10;;;;;;;6.40;100.00;100762.25;4990427;28;20054;-85
2021/12/30 02:56:13;;;;;;;92.30;61.58;;;;;;;6.34;100.00;100758.03;4989006;28;20034;-84
2021/12/30 02:58:38;;;;;;;87.60;59.73;;;;;;;6.41;100.00;100763.91;4991100;28;20045;-84
2021/12/30 03:01:08;;;;;;;94.73;60.57;;;;;;;6.37;100.00;100781.00;4993099;28;20033;-85
2021/12/30 03:03:34;;;;;;;91.72;63.05;;;;;;;6.34;100.00;100776.75;4998681;28;20030;-83
2021/12/30 03:06:02;;;;;;;86.60;58.85;;;;;;;6.39;100.00;100788.63;5008502;28;20026;-84
2021/12/30 03:08:27;;;;;;;77.75;59.65;;;;;;;6.47;100.00;100797.91;5015106;28;20033;-83
2021/12/30 03:10:53;;;;;;;87.00;60.65;;;;;;;6.40;100.00;100810.78;5014089;28;20479;-83
2021/12/30 03:13:30;;;;;;;92.05;58.65;;;;;;;6.38;100.00;100802.28;5009860;28;20120;-85
2021/12/30 03:16:00;;;;;;;81.70;57.80;;;;;;;6.39;100.00;100819.31;5005896;28;20030;-83
2021/12/30 03:18:26;;;;;;;71.30;57.88;;;;;;;6.40;100.00;100826.94;5003249;28;20091;-83
2021/12/30 03:20:52;;;;;;;82.40;56.58;;;;;;;6.42;100.00;100809.06;5005391;28;20116;-84
2021/12/30 03:23:17;;;;;;;84.40;57.80;;;;;;;6.44;100.00;100797.97;5005468;28;20030;-83
2021/12/30 03:25:42;;;;;;;77.83;57.80;;;;;;;6.53;100.00;100807.22;5009755;28;20093;-83
2021/12/30 03:28:08;;;;;;;79.10;58.50;;;;;;;6.56;100.00;100802.09;5013525;28;20053;-83
2021/12/30 03:30:33;;;;;;;81.33;59.97;;;;;;;6.46;100.00;100813.25;5013933;28;20060;-83
2021/12/30 03:32:58;;;;;;;78.53;57.13;;;;;;;6.53;100.00;100802.94;5020693;28;20081;-80
2021/12/30 03:35:24;;;;;;;83.30;60.47;;;;;;;6.46;100.00;100795.38;5022659;28;20033;-80
2021/12/30 03:37:49;;;;;;;75.47;56.70;;;;;;;6.49;100.00;100818.34;5022227;28;20057;-82
2021/12/30 03:40:15;;;;;;;62.40;55.50;;;;;;;6.41;100.00;100820.13;5016938;28;20045;-83
2021/12/30 03:42:41;;;;;;;81.90;57.45;;;;;;;6.51;100.00;100822.56;5005584;28;20507;-82
2021/12/30 03:45:09;;;;;;;74.77;55.43;;;;;;;6.46;100.00;100826.03;5004540;28;20049;-83
2021/12/30 03:47:38;;;;;;;74.13;57.10;;;;;;;6.43;100.00;100818.41;4992853;28;20015;-83
2021/12/30 03:50:05;;;;;;;71.10;57.08;;;;;;;6.34;100.00;100812.50;5002575;28;20034;-83
2021/12/30 03:52:31;;;;;;;71.40;55.28;;;;;;;6.36;100.00;100820.16;5002866;28;20022;-82
2021/12/30 03:54:56;;;;;;;69.83;54.23;;;;;;;6.36;100.00;100830.38;5004490;28;20076;-84
2021/12/30 03:57:22;;;;;;;75.03;55.97;;;;;;;6.33;100.00;100831.28;5013636;28;20022;-81
2021/12/30 03:59:47;;;;;;;81.70;57.57;;;;;;;6.21;100.00;100808.41;5038173;28;20074;-82
2021/12/30 04:02:13;;;;;;;77.73;54.57;;;;;;;6.21;100.00;100816.06;5017281;28;20108;-82
2021/12/30 04:04:38;;;;;;;77.60;55.10;;;;;;;6.37;100.00;100851.69;5009166;28;20060;-84
2021/12/30 04:07:04;;;;;;;74.87;55.47;;;;;;;6.32;100.00;100832.13;5009854;28;20178;-84
2021/12/30 04:09:30;;;;;;;70.93;54.53;;;;;;;6.34;100.00;100830.41;5009694;28;20553;-83
2021/12/30 04:11:55;;;;;;;73.90;53.50;;;;;;;6.30;100.00;100840.66;5009831;28;20097;-84
2021/12/30 04:14:20;;;;;;;67.57;54.03;;;;;;;6.29;100.00;100833.88;5009138;28;20362;-82
2021/12/30 04:16:48;;;;;;;74.73;54.13;;;;;;;6.27;100.00;100838.16;5007572;28;20105;-84
2021/12/30 04:19:13;;;;;;;84.07;55.17;;;;;;;6.30;100.00;100849.19;5027329;28;20030;-84
2021/12/30 04:21:38;;;;;;;64.90;54.57;;;;;;;6.20;100.00;100833.97;5009853;28;20026;-83
2021/12/30 04:24:04;;;;;;;65.87;53.33;;;;;;;6.20;100.00;100834.78;5006902;28;20038;-84
2021/12/30 04:26:30;;;;;;;77.95;54.35;;;;;;;6.22;100.00;100832.22;5005335;28;20033;-83
2021/12/30 04:28:56;;;;;;;69.97;54.33;;;;;;;6.15;100.00;100811.84;5005377;28;20022;-84
2021/12/30 04:31:22;;;;;;;76.05;52.97;;;;;;;6.14;100.00;100807.63;5006510;28;20029;-84
2021/12/30 04:33:47;;;;;;;86.10;55.72;;;;;;;6.14;100.00;100827.19;5011726;28;20068;-83
2021/12/30 04:36:13;;;;;;;70.70;55.87;;;;;;;6.06;100.00;100823.84;5017983;28;20112;-85
2021/12/30 04:38:38;;;;;;;72.40;55.57;;;;;;;6.04;100.00;100826.41;5001800;28;20031;-85
2021/12/30 04:41:05;;;;;;;65.90;54.33;;;;;;;6.03;100.00;100832.41;5002725;28;20026;-84
2021/12/30 04:43:30;;;;;;;71.68;55.60;;;;;;;6.06;100.00;100821.28;5010785;28;20026;-83
2021/12/30 04:45:58;;;;;;;68.83;54.33;;;;;;;6.04;100.00;100818.75;5009471;28;20030;-84
2021/12/30 04:48:23;;;;;;;66.53;53.85;;;;;;;5.96;100.00;100811.16;4984439;28;20113;-83
2021/12/30 04:50:49;;;;;;;85.13;55.77;;;;;;;6.02;100.00;100824.75;4998963;28;20053;-83
2021/12/30 04:53:15;;;;;;;76.43;56.13;;;;;;;5.94;100.00;100822.22;5016955;28;20546;-84
2021/12/30 04:55:40;;;;;;;;;;;;;;;6.01;100.00;100823.88;5012479;28;20033;-84
2021/12/30 04:58:06;;;;;;;68.25;55.25;;;;;;;6.04;100.00;100811.09;5013969;28;20406;-83
2021/12/30 05:00:33;;;;;;;66.70;55.33;;;;;;;5.97;100.00;100806.91;5016832;28;20021;-83
2021/12/30 05:03:08;;;;;;;87.80;58.17;;;;;;;6.01;100.00;100823.06;5019586;28;20012;-83
2021/12/30 05:05:39;;;;;;;86.68;56.38;;;;;;;6.05;100.00;100832.38;5007065;28;20041;-82
2021/12/30 05:08:04;;;;;;;85.20;57.08;;;;;;;6.05;100.00;100835.78;5000656;28;20078;-83
2021/12/30 05:10:29;;;;;;;88.50;60.67;;;;;;;5.99;100.00;100810.28;5000000;28;20019;-82
2021/12/30 05:12:55;;;;;;;90.80;59.00;;;;;;;5.97;100.00;100806.91;4999707;28;20089;-82
2021/12/30 05:15:20;;;;;;;81.17;55.73;;;;;;;6.05;100.00;100817.06;4999810;28;20014;-82
2021/12/30 09:45:47;;;;;;;134.55;73.90;;;;;;;7.58;100.00;100928.75;5050680;28;20033;-90
2021/12/30 09:49:24;;;;;;;;;;;;;;;;;;;;;
2021/12/30 09:51:56;;;;;;;157.25;76.22;;;;;;;7.59;100.00;100922.78;5008980;28;20062;-90
2021/12/30 11:29:13;;;;;;;71.70;58.17;;;;;;;8.88;100.00;100846.38;5028061;28;20056;-83
2021/12/30 11:31:38;;;;;;;74.07;57.27;;;;;;;8.85;100.00;100843.84;5013561;28;20025;-84
2021/12/30 11:34:04;;;;;;;72.67;57.43;;;;;;;8.84;100.00;100829.34;5013699;28;20022;-85
2021/12/30 11:36:29;;;;;;;63.28;56.45;;;;;;;9.00;100.00;100839.28;5021137;28;20021;-85
2021/12/30 11:39:04;;;;;;;69.67;56.87;;;;;;;9.08;100.00;100843.41;5021687;28;20029;-83
2021/12/30 11:41:32;;;;;;;66.95;56.75;;;;;;;8.98;100.00;100810.28;5006439;28;20084;-83
2021/12/30 11:44:00;;;;;;;68.07;57.22;;;;;;;9.17;100.00;100832.09;5002835;28;20061;-84
2021/12/30 11:46:42;;;;;;;74.15;59.92;;;;;;;9.21;100.00;100828.59;4997614;28;20018;-84
2021/12/30 11:49:13;;;;;;;66.35;56.75;;;;;;;9.21;100.00;100833.72;5018571;28;20049;-85
2021/12/30 11:51:53;;;;;;;66.65;57.03;;;;;;;9.31;100.00;100843.81;5009300;28;20021;-83
2021/12/30 11:54:34;;;;;;;84.32;62.00;;;;;;;9.28;100.00;100838.75;5015662;28;20141;-83
2021/12/30 11:57:28;;;;;;;63.47;56.17;;;;;;;9.26;100.00;100837.03;5019837;28;20015;-82
2021/12/30 11:59:54;;;;;;;62.45;55.85;;;;;;;9.28;100.00;100831.03;5057725;28;20021;-83
2021/12/30 12:02:27;;;;;;;61.80;55.08;;;;;;;9.37;100.00;100838.50;5025504;28;20018;-82
2021/12/30 12:04:53;;;;;;;61.30;54.72;;;;;;;9.37;100.00;100841.06;5037289;28;20032;-81
2021/12/30 12:07:18;;;;;;;63.25;55.28;;;;;;;9.38;100.00;100846.19;5020972;28;20013;-82
2021/12/30 12:09:43;;;;;;;61.63;55.00;;;;;;;9.31;100.00;100841.25;5015679;28;20036;-84
2021/12/30 12:12:11;;;;;;;61.03;54.63;;;;;;;9.42;100.00;100859.81;5028902;28;20060;-84
2021/12/30 12:14:41;;;;;;;62.67;54.25;;;;;;;9.32;100.00;100845.47;5019495;28;20030;-84
2021/12/30 12:17:19;;;;;;;61.13;54.80;;;;;;;9.42;100.00;100857.25;5020425;28;20018;-84
2021/12/30 12:19:53;;;;;;;62.72;55.88;;;;;;;9.46;100.00;100828.03;5188867;22;20041;-84
2021/12/30 12:22:18;;;;;;;62.25;55.45;;;;;;;9.50;100.00;100850.22;5054508;28;20088;-83
2021/12/30 12:24:45;;;;;;;60.23;54.00;;;;;;;9.51;100.00;100840.78;5057174;28;20017;-84
2021/12/30 12:27:30;;;;;;;60.58;54.22;;;;;;;9.46;100.00;100830.59;5038922;28;20045;-83
2021/12/30 12:29:57;;;;;;;63.42;55.67;;;;;;;9.57;100.00;100844.06;5057601;28;20016;-83
2021/12/30 12:32:34;;;;;;;62.70;55.88;;;;;;;9.54;100.00;100841.53;5053436;28;20024;-86
2021/12/30 12:35:03;;;;;;;60.72;54.63;;;;;;;9.54;100.00;100823.56;5068350;28;20035;-86
2021/12/30 12:37:39;;;;;;;60.15;53.90;;;;;;;9.57;100.00;100833.78;5035058;28;20025;-84
2021/12/30 12:40:20;;;;;;;61.35;54.95;;;;;;;9.55;100.00;100830.41;5065044;28;20097;-85
2021/12/30 12:42:48;;;;;;;60.20;54.10;;;;;;;9.63;100.00;100832.81;5065452;28;20058;-86
2021/12/30 12:45:19;;;;;;;59.25;53.03;;;;;;;9.71;100.00;100830.06;5075138;28;20093;-84
2021/12/30 12:47:46;;;;;;;59.50;53.65;;;;;;;9.57;100.00;100820.94;5061269;28;20009;-83
2021/12/30 12:50:11;;;;;;;59.80;53.63;;;;;;;9.78;100.00;100834.16;5053247;28;20029;-85
2021/12/30 12:52:45;;;;;;;61.27;54.87;;;;;;;9.77;100.00;100832.50;5048983;28;20070;-86
2021/12/30 12:55:22;;;;;;;60.63;54.25;;;;;;;9.68;100.00;100830.13;5049419;28;20032;-86
2021/12/30 12:57:47;;;;;;;60.30;54.15;;;;;;;9.82;100.00;100828.09;5053416;28;20021;-84
2021/12/30 13:00:13;;;;;;;60.27;54.10;;;;;;;9.75;100.00;100821.38;5056750;28;20040;-84
2021/12/30 13:02:38;;;;;;;60.65;54.42;;;;;;;9.83;100.00;100834.91;5052025;28;20029;-85
2021/12/30 13:05:11;;;;;;;59.15;53.20;;;;;;;9.87;100.00;100833.94;5051049;28;20013;-86
2021/12/30 13:07:37;;;;;;;59.45;53.60;;;;;;;9.84;100.00;100831.44;5046262;28;20037;-85
2021/12/30 13:10:03;;;;;;;58.60;52.90;;;;;;;9.87;100.00;100836.50;5042685;28;20025;-85
2021/12/30 13:12:35;;;;;;;60.13;53.97;;;;;;;10.11;100.00;100842.78;5052427;28;20266;-85
2021/12/30 13:15:00;;;;;;;58.95;53.10;;;;;;;9.91;100.00;100827.88;5050708;28;20108;-86
2021/12/30 13:17:25;;;;;;;56.93;51.53;;;;;;;10.06;100.00;100838.66;5048579;28;20347;-85
2021/12/30 13:19:52;;;;;;;57.53;51.93;;;;;;;10.06;100.00;100839.47;5058161;28;20032;-84
2021/12/30 13:22:23;;;;;;;58.20;52.10;;;;;;;10.02;100.00;100852.44;5046036;28;20029;-85
2021/12/30 13:24:59;;;;;;;57.10;51.45;;;;;;;10.04;100.00;100848.09;5054214;28;20023;-85
2021/12/30 13:27:32;;;;;;;56.17;50.92;;;;;;;10.07;100.00;100856.59;5055817;28;20017;-84
2021/12/30 13:30:13;;;;;;;56.15;50.70;;;;;;;10.11;100.00;100857.38;5072568;28;20056;-85
2021/12/30 13:32:44;;;;;;;56.47;51.05;;;;;;;10.04;100.00;100855.81;5055101;28;20053;-83
2021/12/30 13:35:13;;;;;;;56.58;51.17;;;;;;;10.11;100.00;100859.94;5056823;28;20013;-85
2021/12/30 13:37:43;;;;;;;55.55;50.30;;;;;;;10.18;100.00;100864.06;5076883;28;20063;-85
2021/12/30 13:40:16;;;;;;;57.25;51.53;;;;;;;10.16;100.00;100863.22;5077030;28;20029;-85
2021/12/30 13:42:50;;;;;;;57.03;51.53;;;;;;;10.04;100.00;100842.97;5093610;28;20040;-83
2021/12/30 13:45:15;;;;;;;54.92;49.83;;;;;;;10.07;100.00;100845.44;5077327;28;20037;-83
2021/12/30 13:47:42;;;;;;;55.97;50.60;;;;;;;10.09;100.00;100859.97;5060318;28;20021;-85
2021/12/30 13:50:16;;;;;;;55.95;50.67;;;;;;;9.99;100.00;100849.06;5060289;28;20384;-83
2021/12/30 13:52:43;;;;;;;56.15;50.83;;;;;;;9.99;100.00;100840.53;5059802;28;20033;-83
2021/12/30 13:55:13;;;;;;;56.47;51.10;;;;;;;10.16;100.00;100874.38;5059698;28;20064;-85
2021/12/30 13:57:40;;;;;;;56.13;50.75;;;;;;;10.19;100.00;100878.56;5073223;28;20028;-85
2021/12/30 14:00:10;;;;;;;56.90;51.28;;;;;;;10.16;100.00;100874.38;5068493;28;20037;-84
2021/12/30 14:02:35;;;;;;;56.08;50.67;;;;;;;10.24;100.00;100879.28;5044367;28;20045;-86
2021/12/30 14:05:13;;;;;;;55.60;50.27;;;;;;;10.22;100.00;100878.50;5030057;28;20029;-85
2021/12/30 14:07:44;;;;;;;56.78;51.22;;;;;;;10.28;100.00;100880.09;5031622;28;20025;-84
2021/12/30 14:10:14;;;;;;;55.72;50.42;;;;;;;10.19;100.00;100876.00;5031908;28;20032;-86
2021/12/30 14:13:00;;;;;;;56.60;50.97;;;;;;;10.20;100.00;100872.56;5034057;28;20029;-85
2021/12/30 14:15:26;;;;;;;55.63;50.42;;;;;;;10.17;100.00;100872.63;5068437;28;20036;-83
2021/12/30 14:17:59;;;;;;;55.42;50.30;;;;;;;10.23;100.00;100892.19;5036568;28;20032;-84
2021/12/30 14:20:25;;;;;;;56.72;51.25;;;;;;;10.14;100.00;100888.13;5052257;28;20041;-83
2021/12/30 14:22:50;;;;;;;57.90;52.30;;;;;;;10.08;100.00;100886.53;5052919;28;20027;-84
2021/12/30 14:25:30;;;;;;;55.37;50.17;;;;;;;10.19;100.00;100896.56;5064627;28;20032;-85
2021/12/30 14:27:56;;;;;;;55.83;50.63;;;;;;;10.22;100.00;100887.94;5044243;28;20029;-84
2021/12/30 14:30:22;;;;;;;55.78;50.55;;;;;;;10.20;100.00;100916.25;5061996;28;20029;-83
2021/12/30 14:32:47;;;;;;;57.33;51.72;;;;;;;10.15;100.00;100894.97;5060041;28;20046;-83
2021/12/30 14:35:13;;;;;;;56.53;51.10;;;;;;;10.17;100.00;100894.03;5060329;28;20025;-82
2021/12/30 14:37:40;;;;;;;55.33;50.27;;;;;;;10.21;100.00;100915.34;5054398;28;20044;-82
2021/12/30 14:40:07;;;;;;;56.15;50.90;;;;;;;10.24;100.00;100904.16;5075862;28;20044;-83
2021/12/30 14:42:35;;;;;;;56.85;51.33;;;;;;;10.33;100.00;100915.09;5050787;28;20028;-82
2021/12/30 14:45:10;;;;;;;55.88;50.53;;;;;;;10.34;100.00;100910.81;5051882;28;20059;-84
2021/12/30 14:47:38;;;;;;;57.75;51.95;;;;;;;10.29;100.00;100910.03;5061806;28;20111;-84
2021/12/30 14:50:08;;;;;;;56.65;51.25;;;;;;;10.20;100.00;100911.13;5046619;28;20021;-84
2021/12/30 14:52:42;;;;;;;56.42;50.97;;;;;;;10.19;100.00;100900.88;5035577;28;20021;-85
2021/12/30 14:55:28;;;;;;;56.50;51.00;;;;;;;10.21;100.00;100912.78;5059933;28;20066;-84
2021/12/30 14:57:59;;;;;;;57.88;52.00;;;;;;;10.07;100.00;100902.88;5048540;28;20029;-83
2021/12/30 15:00:28;;;;;;;55.83;50.55;;;;;;;10.24;100.00;100925.56;5048589;28;20056;-86
2021/12/30 15:02:54;;;;;;;58.00;52.08;;;;;;;10.24;100.00;100929.88;5047599;28;20029;-83
2021/12/30 15:05:20;;;;;;;56.23;50.80;;;;;;;10.17;100.00;100922.31;5063186;28;20032;-85
2021/12/30 15:07:46;;;;;;;56.75;51.22;;;;;;;10.15;100.00;100920.69;5047462;28;20036;-85
2021/12/30 15:10:13;;;;;;;55.60;50.38;;;;;;;10.22;100.00;100936.78;5048236;28;20085;-84
2021/12/30 15:12:39;;;;;;;58.42;52.38;;;;;;;10.16;100.00;100933.50;5047393;28;20391;-85
2021/12/30 15:15:07;;;;;;;58.00;52.13;;;;;;;10.28;100.00;100958.06;5048797;28;20028;-85
2021/12/30 15:17:33;;;;;;;56.22;50.92;;;;;;;10.28;100.00;100965.75;5047553;28;20033;-84
2021/12/30 15:19:58;;;;;;;56.45;51.05;;;;;;;10.19;100.00;100958.25;5048000;28;20036;-86
2021/12/30 15:22:24;;;;;;;57.40;51.70;;;;;;;10.21;100.00;100971.09;5052706;28;20023;-85
2021/12/30 15:24:50;;;;;;;59.00;53.13;;;;;;;10.33;100.00;100971.66;5053638;28;20021;-86
2021/12/30 15:27:18;;;;;;;57.30;51.60;;;;;;;10.28;100.00;100973.47;5043444;28;20033;-86
2021/12/30 15:29:46;;;;;;;58.03;52.22;;;;;;;10.33;100.00;100987.09;5043558;28;20025;-87
2021/12/30 15:32:12;;;;;;;55.78;50.47;;;;;;;10.32;100.00;100993.13;5042632;28;20024;-85
2021/12/30 15:34:40;;;;;;;57.28;51.55;;;;;;;10.26;100.00;100977.81;5040116;28;20521;-85
2021/12/30 15:37:08;;;;;;;56.80;51.30;;;;;;;10.03;100.00;100931.25;5047976;28;20039;-85
2021/12/30 15:39:34;;;;;;;57.47;51.85;;;;;;;10.15;100.00;100972.09;5051027;28;20017;-85
2021/12/30 15:42:00;;;;;;;56.10;50.78;;;;;;;10.11;100.00;100953.28;5061639;28;20017;-83
2021/12/30 15:44:25;;;;;;;56.05;50.75;;;;;;;10.55;100.00;101012.31;5050452;28;20029;-86
2021/12/30 15:46:51;;;;;;;56.73;51.47;;;;;;;10.40;100.00;101003.22;5049922;28;20036;-86
2021/12/30 15:49:16;;;;;;;55.90;50.53;;;;;;;10.34;100.00;101001.66;5047836;28;20021;-85
2021/12/30 15:51:43;;;;;;;57.23;51.57;;;;;;;10.48;100.00;101021.03;5047955;28;20082;-85
2021/12/30 15:54:15;;;;;;;57.85;52.03;;;;;;;10.38;100.00;101019.59;5045934;28;20025;-85
2021/12/30 15:56:44;;;;;;;57.80;52.10;;;;;;;10.28;100.00;101001.75;5039828;28;20049;-84
2021/12/30 15:59:11;;;;;;;57.35;51.92;;;;;;;10.41;100.00;101017.78;5043323;28;20036;-85
2021/12/30 16:01:37;;;;;;;57.58;51.97;;;;;;;10.39;100.00;101027.25;5044794;28;20021;-86
2021/12/30 16:04:02;;;;;;;59.03;53.23;;;;;;;10.22;100.00;101004.47;5044752;28;20035;-83
2021/12/30 16:06:27;;;;;;;59.07;53.23;;;;;;;10.34;100.00;101003.38;5031579;28;20021;-86
2021/12/30 16:08:53;;;;;;;57.27;51.67;;;;;;;10.37;100.00;101028.16;5054287;28;20048;-86
2021/12/30 16:11:18;;;;;;;57.37;51.93;;;;;;;10.23;100.00;101010.44;5060415;28;20036;-84
2021/12/30 16:13:44;;;;;;;58.43;52.60;;;;;;;10.33;100.00;101035.94;5076382;28;20017;-83
2021/12/30 16:16:10;;;;;;;57.83;52.15;;;;;;;10.32;100.00;101036.84;5076982;28;20098;-83
2021/12/30 16:18:35;;;;;;;57.97;52.43;;;;;;;10.34;100.00;101034.25;5060491;28;20041;-85
2021/12/30 16:21:02;;;;;;;59.47;53.40;;;;;;;10.31;100.00;101029.97;5059522;28;20282;-84
2021/12/30 16:23:35;;;;;;;58.80;52.63;;;;;;;10.34;100.00;101040.22;5058199;28;20025;-84
2021/12/30 16:26:01;;;;;;;59.55;53.40;;;;;;;10.28;100.00;101037.75;5054761;28;20056;-86
2021/12/30 16:28:26;;;;;;;59.07;53.17;;;;;;;10.24;100.00;101025.84;5046298;28;20032;-84
2021/12/30 16:30:52;;;;;;;59.22;53.20;;;;;;;10.31;100.00;101042.00;5044985;28;20544;-85
2021/12/30 16:33:18;;;;;;;59.38;53.22;;;;;;;10.14;100.00;101019.22;5045756;28;20028;-85
2021/12/30 16:35:44;;;;;;;58.30;52.70;;;;;;;10.32;100.00;101057.41;5047895;28;20028;-86
2021/12/30 16:38:09;;;;;;;58.40;52.63;;;;;;;10.30;100.00;101043.69;5040568;28;20053;-85
2021/12/30 16:40:38;;;;;;;58.70;53.03;;;;;;;10.33;100.00;101053.94;5048800;28;20056;-85
2021/12/30 16:43:04;;;;;;;59.08;53.35;;;;;;;10.27;100.00;101061.75;5049375;28;20082;-85
2021/12/30 16:45:32;;;;;;;60.63;54.15;;;;;;;10.29;100.00;101061.72;5039645;28;20029;-85
2021/12/30 16:47:59;;;;;;;58.03;52.42;;;;;;;10.31;100.00;101070.28;5033666;28;20018;-86
2021/12/30 16:50:24;;;;;;;58.13;52.22;;;;;;;10.24;100.00;101054.13;5047818;28;20020;-85
2021/12/30 16:52:50;;;;;;;60.23;53.87;;;;;;;10.19;100.00;101055.94;5048524;28;20032;-85
2021/12/30 16:55:15;;;;;;;59.40;53.40;;;;;;;10.26;100.00;101062.66;5049411;28;20333;-84
2021/12/30 16:57:41;;;;;;;58.93;53.07;;;;;;;10.22;100.00;101076.44;5046801;28;20029;-86
2021/12/30 17:00:10;;;;;;;59.45;53.47;;;;;;;10.14;100.00;101039.78;5047666;28;20055;-86
2021/12/30 17:02:36;;;;;;;60.05;54.05;;;;;;;10.24;100.00;101064.41;5066669;28;20067;-84
2021/12/30 17:05:03;;;;;;;57.35;52.00;;;;;;;10.29;100.00;101072.88;5068320;28;20032;-85
2021/12/30 17:07:30;;;;;;;59.30;53.58;;;;;;;10.26;100.00;101072.94;5060161;28;20043;-84
2021/12/30 17:09:55;;;;;;;;;;;;;;;10.30;100.00;101084.84;5060783;28;20041;-84
2021/12/30 17:12:21;;;;;;;59.60;53.83;;;;;;;10.33;100.00;101087.38;5051962;28;20019;-86
2021/12/30 17:14:47;;;;;;;;;;;;;;;10.30;100.00;101089.97;5048280;28;20052;-85